sensor_id;sensor_type;location;lat;lon;timestamp;pressure;altitude;pressure_sealevel;temperature;humidity
47556;BME280;33291;46.222;26.460;2022-11-20T00:02:18;96449.22;;;2.23;91.23
47556;BME280;33291;46.222;26.460;2022-11-20T00:04:43;96434.81;;;2.20;91.04
47556;BME280;33291;46.222;26.460;2022-11-20T00:07:09;96434.06;;;2.18;91.53
47556;BME280;33291;46.222;26.460;2022-11-20T00:09:34;96437.06;;;2.10;91.67
47556;BME280;33291;46.222;26.460;2022-11-20T00:12:00;96425.13;;;2.09;91.83
47556;BME280;33291;46.222;26.460;2022-11-20T00:14:25;96436.44;;;2.07;92.41
47556;BME280;33291;46.222;26.460;2022-11-20T00:16:50;96431.84;;;2.12;92.03
47556;BME280;33291;46.222;26.460;2022-11-20T00:19:16;96424.31;;;2.09;92.91
47556;BME280;33291;46.222;26.460;2022-11-20T00:21:41;96393.66;;;2.06;92.27
47556;BME280;33291;46.222;26.460;2022-11-20T00:24:10;96392.75;;;2.07;92.30
47556;BME280;33291;46.222;26.460;2022-11-20T00:26:36;96408.63;;;2.13;92.35
47556;BME280;33291;46.222;26.460;2022-11-20T00:29:02;96369.84;;;1.88;92.37
47556;BME280;33291;46.222;26.460;2022-11-20T00:31:28;96412.56;;;2.05;92.84
47556;BME280;33291;46.222;26.460;2022-11-20T00:33:54;96397.31;;;2.02;92.84
47556;BME280;33291;46.222;26.460;2022-11-20T00:36:24;96391.34;;;2.01;93.31
47556;BME280;33291;46.222;26.460;2022-11-20T00:38:57;96387.63;;;2.07;93.17
47556;BME280;33291;46.222;26.460;2022-11-20T00:41:24;96391.91;;;2.06;93.19
47556;BME280;33291;46.222;26.460;2022-11-20T00:43:51;96373.66;;;1.97;92.75
47556;BME280;33291;46.222;26.460;2022-11-20T00:46:18;96384.88;;;2.10;93.10
47556;BME280;33291;46.222;26.460;2022-11-20T00:48:45;96386.31;;;2.14;92.63
47556;BME280;33291;46.222;26.460;2022-11-20T00:51:13;96369.44;;;2.10;92.85
47556;BME280;33291;46.222;26.460;2022-11-20T00:53:39;96374.59;;;2.10;93.51
47556;BME280;33291;46.222;26.460;2022-11-20T00:56:08;96368.16;;;2.03;93.57
47556;BME280;33291;46.222;26.460;2022-11-20T00:58:37;96378.06;;;2.09;93.75
47556;BME280;33291;46.222;26.460;2022-11-20T01:01:05;96367.97;;;2.06;93.71
47556;BME280;33291;46.222;26.460;2022-11-20T01:03:32;96362.91;;;2.04;93.65
47556;BME280;33291;46.222;26.460;2022-11-20T01:06:11;96359.63;;;2.02;94.02
47556;BME280;33291;46.222;26.460;2022-11-20T01:08:38;96359.53;;;2.04;93.79
47556;BME280;33291;46.222;26.460;2022-11-20T01:11:06;96324.78;;;1.82;93.83
47556;BME280;33291;46.222;26.460;2022-11-20T01:13:32;96347.78;;;2.00;94.03
47556;BME280;33291;46.222;26.460;2022-11-20T01:18:32;96350.44;;;1.98;94.27
47556;BME280;33291;46.222;26.460;2022-11-20T01:21:25;96338.59;;;1.95;94.55
47556;BME280;33291;46.222;26.460;2022-11-20T01:23:51;96334.38;;;1.94;94.26
47556;BME280;33291;46.222;26.460;2022-11-20T01:26:25;96326.84;;;1.91;94.46
47556;BME280;33291;46.222;26.460;2022-11-20T01:28:51;96333.63;;;1.92;94.40
47556;BME280;33291;46.222;26.460;2022-11-20T01:31:23;96325.91;;;1.92;94.44
47556;BME280;33291;46.222;26.460;2022-11-20T01:33:51;96318.31;;;1.91;94.72
47556;BME280;33291;46.222;26.460;2022-11-20T01:36:19;96321.63;;;1.93;94.70
47556;BME280;33291;46.222;26.460;2022-11-20T01:38:45;96324.09;;;1.94;94.78
47556;BME280;33291;46.222;26.460;2022-11-20T01:41:12;96329.25;;;1.94;94.60
47556;BME280;33291;46.222;26.460;2022-11-20T01:43:58;96314.91;;;1.90;94.71
47556;BME280;33291;46.222;26.460;2022-11-20T01:46:24;96323.16;;;1.95;94.60
47556;BME280;33291;46.222;26.460;2022-11-20T01:49:03;96312.97;;;1.94;95.14
47556;BME280;33291;46.222;26.460;2022-11-20T01:51:35;96312.00;;;1.97;95.10
47556;BME280;33291;46.222;26.460;2022-11-20T01:54:07;96315.66;;;1.92;95.05
47556;BME280;33291;46.222;26.460;2022-11-20T01:56:37;96317.41;;;1.92;95.07
47556;BME280;33291;46.222;26.460;2022-11-20T01:59:05;96289.50;;;1.86;95.46
47556;BME280;33291;46.222;26.460;2022-11-20T02:01:33;96307.94;;;1.92;95.34
47556;BME280;33291;46.222;26.460;2022-11-20T02:04:00;96310.41;;;1.94;95.49
47556;BME280;33291;46.222;26.460;2022-11-20T02:06:29;96309.59;;;1.93;95.36
47556;BME280;33291;46.222;26.460;2022-11-20T02:08:56;96297.38;;;1.97;95.41
47556;BME280;33291;46.222;26.460;2022-11-20T02:11:21;96297.22;;;2.00;95.27
47556;BME280;33291;46.222;26.460;2022-11-20T02:13:47;96284.00;;;1.92;95.35
47556;BME280;33291;46.222;26.460;2022-11-20T02:16:25;96282.34;;;1.91;95.34
47556;BME280;33291;46.222;26.460;2022-11-20T02:18:54;96286.47;;;1.93;95.37
47556;BME280;33291;46.222;26.460;2022-11-20T02:26:23;96284.81;;;1.92;95.87
47556;BME280;33291;46.222;26.460;2022-11-20T02:28:51;96259.88;;;1.80;95.54
47556;BME280;33291;46.222;26.460;2022-11-20T02:31:17;96284.81;;;1.92;95.59
47556;BME280;33291;46.222;26.460;2022-11-20T02:33:42;96266.75;;;1.94;95.71
47556;BME280;33291;46.222;26.460;2022-11-20T02:36:11;96294.00;;;1.97;95.55
47556;BME280;33291;46.222;26.460;2022-11-20T02:38:39;96255.44;;;1.82;96.05
47556;BME280;33291;46.222;26.460;2022-11-20T02:41:04;96259.41;;;1.88;95.61
47556;BME280;33291;46.222;26.460;2022-11-20T02:43:30;96271.06;;;1.93;95.54
47556;BME280;33291;46.222;26.460;2022-11-20T02:45:56;96264.28;;;1.92;95.95
47556;BME280;33291;46.222;26.460;2022-11-20T02:48:21;96258.50;;;1.89;95.73
47556;BME280;33291;46.222;26.460;2022-11-20T02:50:47;96263.72;;;1.87;96.03
47556;BME280;33291;46.222;26.460;2022-11-20T02:53:12;96248.41;;;1.86;96.18
47556;BME280;33291;46.222;26.460;2022-11-20T02:55:37;96247.56;;;1.85;96.24
47556;BME280;33291;46.222;26.460;2022-11-20T02:58:03;96244.19;;;1.85;95.99
47556;BME280;33291;46.222;26.460;2022-11-20T03:00:28;96234.38;;;1.77;96.22
47556;BME280;33291;46.222;26.460;2022-11-20T03:02:54;96240.97;;;1.81;96.12
47556;BME280;33291;46.222;26.460;2022-11-20T03:05:19;96232.16;;;1.85;96.42
47556;BME280;33291;46.222;26.460;2022-11-20T03:07:45;96230.53;;;1.84;96.14
47556;BME280;33291;46.222;26.460;2022-11-20T03:10:10;96238.69;;;1.91;96.20
47556;BME280;33291;46.222;26.460;2022-11-20T03:12:36;96225.56;;;1.81;96.27
47556;BME280;33291;46.222;26.460;2022-11-20T03:15:02;96224.28;;;1.88;96.24
47556;BME280;33291;46.222;26.460;2022-11-20T03:17:27;96217.59;;;1.86;96.45
47556;BME280;33291;46.222;26.460;2022-11-20T03:19:54;96233.34;;;1.94;96.23
47556;BME280;33291;46.222;26.460;2022-11-20T03:22:19;96231.06;;;1.89;96.33
47556;BME280;33291;46.222;26.460;2022-11-20T03:24:45;96225.47;;;1.83;96.45
47556;BME280;33291;46.222;26.460;2022-11-20T03:27:11;96232.00;;;1.88;96.28
47556;BME280;33291;46.222;26.460;2022-11-20T03:29:36;96228.69;;;1.86;96.65
47556;BME280;33291;46.222;26.460;2022-11-20T03:32:02;96229.53;;;1.87;96.88
47556;BME280;33291;46.222;26.460;2022-11-20T03:34:27;96225.28;;;1.86;96.83
47556;BME280;33291;46.222;26.460;2022-11-20T03:36:53;96208.50;;;1.80;96.97
47556;BME280;33291;46.222;26.460;2022-11-20T03:39:18;96229.34;;;1.90;97.04
47556;BME280;33291;46.222;26.460;2022-11-20T03:41:44;96221.53;;;1.91;97.34
47556;BME280;33291;46.222;26.460;2022-11-20T03:44:11;96210.97;;;1.82;97.58
47556;BME280;33291;46.222;26.460;2022-11-20T03:46:37;96215.66;;;1.89;97.31
47556;BME280;33291;46.222;26.460;2022-11-20T03:49:03;96214.19;;;1.85;97.49
47556;BME280;33291;46.222;26.460;2022-11-20T03:51:31;96226.03;;;1.88;97.21
47556;BME280;33291;46.222;26.460;2022-11-20T03:53:59;96223.72;;;1.83;97.10
47556;BME280;33291;46.222;26.460;2022-11-20T03:56:30;96190.34;;;1.69;97.25
47556;BME280;33291;46.222;26.460;2022-11-20T03:58:57;96223.16;;;1.92;97.01
47556;BME280;33291;46.222;26.460;2022-11-20T04:01:29;96213.28;;;1.86;97.08
47556;BME280;33291;46.222;26.460;2022-11-20T04:03:56;96220.69;;;1.91;97.05
47556;BME280;33291;46.222;26.460;2022-11-20T04:06:27;96216.59;;;1.88;96.82
47556;BME280;33291;46.222;26.460;2022-11-20T04:08:58;96208.13;;;1.86;96.75
47556;BME280;33291;46.222;26.460;2022-11-20T04:11:26;96208.78;;;1.90;96.85
47556;BME280;33291;46.222;26.460;2022-11-20T04:13:59;96220.31;;;1.97;96.96
47556;BME280;33291;46.222;26.460;2022-11-20T04:16:26;96218.22;;;1.89;96.72
47556;BME280;33291;46.222;26.460;2022-11-20T04:18:55;96225.03;;;1.90;96.79
47556;BME280;33291;46.222;26.460;2022-11-20T04:21:22;96219.69;;;1.93;96.87
47556;BME280;33291;46.222;26.460;2022-11-20T04:23:49;96219.41;;;1.84;96.93
47556;BME280;33291;46.222;26.460;2022-11-20T04:26:14;96211.44;;;1.88;96.79
47556;BME280;33291;46.222;26.460;2022-11-20T04:28:40;96219.69;;;1.93;96.81
47556;BME280;33291;46.222;26.460;2022-11-20T04:31:08;96224.84;;;1.93;96.69
47556;BME280;33291;46.222;26.460;2022-11-20T04:33:34;96218.88;;;1.93;96.78
47556;BME280;33291;46.222;26.460;2022-11-20T04:36:11;96212.72;;;1.95;96.60
47556;BME280;33291;46.222;26.460;2022-11-20T04:38:37;96205.09;;;1.94;96.95
47556;BME280;33291;46.222;26.460;2022-11-20T04:41:05;96199.34;;;1.90;97.01
47556;BME280;33291;46.222;26.460;2022-11-20T04:43:32;96200.72;;;1.96;96.88
47556;BME280;33291;46.222;26.460;2022-11-20T04:45:58;96204.28;;;1.93;96.63
47556;BME280;33291;46.222;26.460;2022-11-20T04:48:25;96204.28;;;1.93;96.95
47556;BME280;33291;46.222;26.460;2022-11-20T04:50:51;96205.94;;;1.94;96.82
47556;BME280;33291;46.222;26.460;2022-11-20T04:53:17;96199.53;;;1.87;96.82
47556;BME280;33291;46.222;26.460;2022-11-20T04:55:43;96202.81;;;1.89;96.61
47556;BME280;33291;46.222;26.460;2022-11-20T04:58:08;96200.44;;;1.86;96.69
47556;BME280;33291;46.222;26.460;2022-11-20T05:00:34;96186.88;;;1.84;96.84
47556;BME280;33291;46.222;26.460;2022-11-20T05:02:59;96184.66;;;1.78;97.09
47556;BME280;33291;46.222;26.460;2022-11-20T05:05:25;96191.00;;;1.87;97.09
47556;BME280;33291;46.222;26.460;2022-11-20T05:07:50;96195.28;;;1.86;97.15
47556;BME280;33291;46.222;26.460;2022-11-20T05:10:16;96188.44;;;1.87;97.03
47556;BME280;33291;46.222;26.460;2022-11-20T05:12:42;96174.41;;;1.78;97.27
47556;BME280;33291;46.222;26.460;2022-11-20T05:15:07;96159.63;;;1.82;97.49
47556;BME280;33291;46.222;26.460;2022-11-20T05:17:33;96162.75;;;1.87;97.30
47556;BME280;33291;46.222;26.460;2022-11-20T05:19:59;96161.91;;;1.86;97.24
47556;BME280;33291;46.222;26.460;2022-11-20T05:22:24;96151.19;;;1.80;97.53
47556;BME280;33291;46.222;26.460;2022-11-20T05:24:50;96155.19;;;1.84;97.76
47556;BME280;33291;46.222;26.460;2022-11-20T05:27:15;96144.81;;;1.85;97.38
47556;BME280;33291;46.222;26.460;2022-11-20T05:29:41;96137.69;;;1.76;97.13
47556;BME280;33291;46.222;26.460;2022-11-20T05:32:06;96134.13;;;1.78;97.66
47556;BME280;33291;46.222;26.460;2022-11-20T05:34:35;96136.41;;;1.83;97.42
47556;BME280;33291;46.222;26.460;2022-11-20T05:37:01;96142.44;;;1.82;97.90
47556;BME280;33291;46.222;26.460;2022-11-20T05:39:26;96142.72;;;1.77;97.86
47556;BME280;33291;46.222;26.460;2022-11-20T05:41:52;96144.28;;;1.80;97.97
47556;BME280;33291;46.222;26.460;2022-11-20T05:44:37;96161.91;;;1.86;97.96
47556;BME280;33291;46.222;26.460;2022-11-20T05:47:03;96162.66;;;1.88;97.64
47556;BME280;33291;46.222;26.460;2022-11-20T05:49:28;96142.19;;;1.87;97.82
47556;BME280;33291;46.222;26.460;2022-11-20T05:51:54;96143.44;;;1.94;97.70
47556;BME280;33291;46.222;26.460;2022-11-20T05:54:19;96148.50;;;1.95;97.67
47556;BME280;33291;46.222;26.460;2022-11-20T05:56:45;96150.34;;;1.93;97.47
47556;BME280;33291;46.222;26.460;2022-11-20T05:59:10;96144.19;;;1.96;97.41
47556;BME280;33291;46.222;26.460;2022-11-20T06:01:36;96133.16;;;1.94;97.74
47556;BME280;33291;46.222;26.460;2022-11-20T06:04:02;96147.47;;;1.98;97.95
47556;BME280;33291;46.222;26.460;2022-11-20T06:06:27;96151.06;;;1.95;97.78
47556;BME280;33291;46.222;26.460;2022-11-20T06:08:54;96122.91;;;1.94;97.64
47556;BME280;33291;46.222;26.460;2022-11-20T06:11:19;96126.31;;;1.94;97.60
47556;BME280;33291;46.222;26.460;2022-11-20T06:13:46;96107.44;;;1.81;97.72
47556;BME280;33291;46.222;26.460;2022-11-20T06:16:13;96140.88;;;1.94;98.04
47556;BME280;33291;46.222;26.460;2022-11-20T06:18:39;96120.81;;;1.86;97.62
47556;BME280;33291;46.222;26.460;2022-11-20T06:21:10;96131.72;;;1.90;98.18
47556;BME280;33291;46.222;26.460;2022-11-20T06:23:36;96135.03;;;1.92;97.69
47556;BME280;33291;46.222;26.460;2022-11-20T06:26:08;96136.88;;;1.90;97.85
47556;BME280;33291;46.222;26.460;2022-11-20T06:28:34;96125.94;;;1.86;97.99
47556;BME280;33291;46.222;26.460;2022-11-20T06:31:00;96119.53;;;1.79;98.15
47556;BME280;33291;46.222;26.460;2022-11-20T06:33:26;96118.09;;;1.75;98.62
47556;BME280;33291;46.222;26.460;2022-11-20T06:35:51;96124.38;;;1.84;98.72
47556;BME280;33291;46.222;26.460;2022-11-20T06:38:17;96126.94;;;1.84;98.64
47556;BME280;33291;46.222;26.460;2022-11-20T06:40:43;96127.78;;;1.84;98.39
47556;BME280;33291;46.222;26.460;2022-11-20T06:43:09;96117.91;;;1.78;98.04
47556;BME280;33291;46.222;26.460;2022-11-20T06:45:36;96117.53;;;1.84;98.34
47556;BME280;33291;46.222;26.460;2022-11-20T06:48:01;96109.25;;;1.79;98.35
47556;BME280;33291;46.222;26.460;2022-11-20T06:50:27;96107.97;;;1.86;98.29
47556;BME280;33291;46.222;26.460;2022-11-20T06:52:52;96105.22;;;1.89;97.88
47556;BME280;33291;46.222;26.460;2022-11-20T06:55:18;96103.47;;;1.90;97.60
47556;BME280;33291;46.222;26.460;2022-11-20T06:57:43;96079.19;;;1.81;97.81
47556;BME280;33291;46.222;26.460;2022-11-20T07:00:09;96062.50;;;1.74;97.60
47556;BME280;33291;46.222;26.460;2022-11-20T07:02:35;96082.38;;;1.85;97.94
47556;BME280;33291;46.222;26.460;2022-11-20T07:05:00;96063.78;;;1.81;97.70
47556;BME280;33291;46.222;26.460;2022-11-20T07:07:26;96079.31;;;1.92;97.61
47556;BME280;33291;46.222;26.460;2022-11-20T07:09:51;96052.47;;;1.84;97.45
47556;BME280;33291;46.222;26.460;2022-11-20T07:12:17;96058.53;;;1.83;97.93
47556;BME280;33291;46.222;26.460;2022-11-20T07:14:42;96033.88;;;1.80;98.36
47556;BME280;33291;46.222;26.460;2022-11-20T07:17:08;96020.31;;;1.78;97.89
47556;BME280;33291;46.222;26.460;2022-11-20T07:19:33;96022.69;;;1.81;97.92
47556;BME280;33291;46.222;26.460;2022-11-20T07:21:59;96002.84;;;1.83;98.25
47556;BME280;33291;46.222;26.460;2022-11-20T07:24:24;95987.25;;;1.86;98.12
47556;BME280;33291;46.222;26.460;2022-11-20T07:26:50;95960.75;;;1.86;97.70
47556;BME280;33291;46.222;26.460;2022-11-20T07:29:16;95962.44;;;2.00;97.36
47556;BME280;33291;46.222;26.460;2022-11-20T07:31:42;95920.31;;;2.02;97.19
47556;BME280;33291;46.222;26.460;2022-11-20T07:34:08;95883.31;;;2.05;97.00
47556;BME280;33291;46.222;26.460;2022-11-20T07:36:34;95920.63;;;2.10;97.11
47556;BME280;33291;46.222;26.460;2022-11-20T07:39:00;96017.03;;;2.16;97.72
47556;BME280;33291;46.222;26.460;2022-11-20T07:41:25;96137.53;;;2.06;96.14
47556;BME280;33291;46.222;26.460;2022-11-20T07:43:51;96050.97;;;2.21;94.98
47556;BME280;33291;46.222;26.460;2022-11-20T07:46:16;96043.25;;;2.21;94.71
47556;BME280;33291;46.222;26.460;2022-11-20T07:48:42;96029.59;;;2.21;95.71
47556;BME280;33291;46.222;26.460;2022-11-20T07:51:07;96006.38;;;2.22;96.79
47556;BME280;33291;46.222;26.460;2022-11-20T07:53:33;95976.44;;;2.21;97.55
47556;BME280;33291;46.222;26.460;2022-11-20T07:56:02;95975.53;;;2.22;99.14
47556;BME280;33291;46.222;26.460;2022-11-20T07:58:31;95990.44;;;2.30;98.97
47556;BME280;33291;46.222;26.460;2022-11-20T08:01:02;96011.00;;;2.30;98.74
47556;BME280;33291;46.222;26.460;2022-11-20T08:03:28;95977.81;;;2.27;98.34
47556;BME280;33291;46.222;26.460;2022-11-20T08:05:53;95996.41;;;2.30;98.70
47556;BME280;33291;46.222;26.460;2022-11-20T08:08:19;95990.53;;;2.28;98.34
47556;BME280;33291;46.222;26.460;2022-11-20T08:10:46;96012.03;;;2.27;98.63
47556;BME280;33291;46.222;26.460;2022-11-20T08:13:11;95992.59;;;2.23;98.36
47556;BME280;33291;46.222;26.460;2022-11-20T08:15:55;95995.69;;;2.28;98.42
47556;BME280;33291;46.222;26.460;2022-11-20T08:18:21;95981.09;;;2.29;98.41
47556;BME280;33291;46.222;26.460;2022-11-20T08:20:46;95984.28;;;2.33;98.13
47556;BME280;33291;46.222;26.460;2022-11-20T08:23:12;95981.72;;;2.33;97.98
47556;BME280;33291;46.222;26.460;2022-11-20T08:25:38;96000.94;;;2.27;97.65
47556;BME280;33291;46.222;26.460;2022-11-20T08:28:06;96028.91;;;2.31;98.02
47556;BME280;33291;46.222;26.460;2022-11-20T08:30:32;96004.75;;;2.34;98.08
47556;BME280;33291;46.222;26.460;2022-11-20T08:33:04;95996.28;;;2.19;98.62
47556;BME280;33291;46.222;26.460;2022-11-20T08:35:37;96010.59;;;2.36;98.19
47556;BME280;33291;46.222;26.460;2022-11-20T08:38:04;96020.59;;;2.41;99.02
47556;BME280;33291;46.222;26.460;2022-11-20T08:40:30;96023.06;;;2.42;98.97
47556;BME280;33291;46.222;26.460;2022-11-20T08:42:56;96002.59;;;2.41;99.21
47556;BME280;33291;46.222;26.460;2022-11-20T08:45:22;96010.81;;;2.46;98.99
47556;BME280;33291;46.222;26.460;2022-11-20T08:47:47;96014.13;;;2.48;98.83
47556;BME280;33291;46.222;26.460;2022-11-20T08:50:15;96014.84;;;2.50;98.99
47556;BME280;33291;46.222;26.460;2022-11-20T08:52:41;96025.88;;;2.52;99.24
47556;BME280;33291;46.222;26.460;2022-11-20T08:55:07;96033.56;;;2.52;99.23
47556;BME280;33291;46.222;26.460;2022-11-20T08:57:33;96034.19;;;2.56;98.77
47556;BME280;33291;46.222;26.460;2022-11-20T08:59:59;96029.97;;;2.55;98.86
47556;BME280;33291;46.222;26.460;2022-11-20T09:02:25;96005.50;;;2.49;98.75
47556;BME280;33291;46.222;26.460;2022-11-20T09:04:50;96011.25;;;2.53;98.77
47556;BME280;33291;46.222;26.460;2022-11-20T09:07:16;96010.63;;;2.49;98.39
47556;BME280;33291;46.222;26.460;2022-11-20T09:09:41;96001.78;;;2.53;98.48
47556;BME280;33291;46.222;26.460;2022-11-20T09:12:07;95993.25;;;2.53;98.41
47556;BME280;33291;46.222;26.460;2022-11-20T09:14:32;95998.19;;;2.56;98.02
47556;BME280;33291;46.222;26.460;2022-11-20T09:16:59;96010.44;;;2.52;97.85
47556;BME280;33291;46.222;26.460;2022-11-20T09:19:24;96012.50;;;2.60;97.30
47556;BME280;33291;46.222;26.460;2022-11-20T09:21:50;96001.38;;;2.59;97.21
47556;BME280;33291;46.222;26.460;2022-11-20T09:24:16;96019.16;;;2.62;97.21
47556;BME280;33291;46.222;26.460;2022-11-20T09:26:42;95996.44;;;2.56;97.22
47556;BME280;33291;46.222;26.460;2022-11-20T09:29:07;95997.69;;;2.63;96.78
47556;BME280;33291;46.222;26.460;2022-11-20T09:31:33;95965.38;;;2.59;96.95
47556;BME280;33291;46.222;26.460;2022-11-20T09:33:58;95965.16;;;2.62;96.57
47556;BME280;33291;46.222;26.460;2022-11-20T09:36:24;95963.94;;;2.68;96.29
47556;BME280;33291;46.222;26.460;2022-11-20T09:38:49;95959.19;;;2.75;96.57
47556;BME280;33291;46.222;26.460;2022-11-20T09:54:49;95973.22;;;2.71;97.29
47556;BME280;33291;46.222;26.460;2022-11-20T09:57:19;95964.97;;;2.65;97.32
47556;BME280;33291;46.222;26.460;2022-11-20T09:59:51;95963.53;;;2.74;97.18
47556;BME280;33291;46.222;26.460;2022-11-20T10:11:04;95957.38;;;2.77;95.87
47556;BME280;33291;46.222;26.460;2022-11-20T10:19:45;95943.47;;;2.79;95.81
47556;BME280;33291;46.222;26.460;2022-11-20T10:25:19;95943.56;;;2.78;95.32
47556;BME280;33291;46.222;26.460;2022-11-20T10:30:18;95929.66;;;2.80;95.36
47556;BME280;33291;46.222;26.460;2022-11-20T10:33:04;95948.63;;;2.79;95.57
47556;BME280;33291;46.222;26.460;2022-11-20T10:38:02;95954.06;;;2.88;95.51
47556;BME280;33291;46.222;26.460;2022-11-20T10:40:30;95945.41;;;2.89;95.29
47556;BME280;33291;46.222;26.460;2022-11-20T10:43:19;95950.78;;;2.86;95.24
47556;BME280;33291;46.222;26.460;2022-11-20T10:45:52;95962.78;;;2.85;95.52
47556;BME280;33291;46.222;26.460;2022-11-20T10:48:24;95931.13;;;2.84;95.14
47556;BME280;33291;46.222;26.460;2022-11-20T10:51:35;95903.53;;;2.87;95.25
47556;BME280;33291;46.222;26.460;2022-11-20T10:56:51;95875.44;;;2.83;95.36
47556;BME280;33291;46.222;26.460;2022-11-20T11:01:58;95904.97;;;2.91;95.65
47556;BME280;33291;46.222;26.460;2022-11-20T11:04:33;95905.56;;;2.94;95.67
47556;BME280;33291;46.222;26.460;2022-11-20T11:07:10;95924.41;;;2.95;95.82
47556;BME280;33291;46.222;26.460;2022-11-20T11:09:43;95925.44;;;2.92;95.90
47556;BME280;33291;46.222;26.460;2022-11-20T11:12:10;95928.34;;;2.88;96.34
47556;BME280;33291;46.222;26.460;2022-11-20T11:14:43;95918.75;;;2.90;95.93
47556;BME280;33291;46.222;26.460;2022-11-20T11:22:23;95918.84;;;2.88;97.03
47556;BME280;33291;46.222;26.460;2022-11-20T11:24:52;95925.00;;;2.98;96.76
47556;BME280;33291;46.222;26.460;2022-11-20T11:27:18;95920.91;;;2.96;96.66
47556;BME280;33291;46.222;26.460;2022-11-20T11:29:44;95923.16;;;3.00;96.82
47556;BME280;33291;46.222;26.460;2022-11-20T11:32:19;95931.59;;;3.02;96.46
47556;BME280;33291;46.222;26.460;2022-11-20T11:35:02;95949.63;;;3.02;96.56
47556;BME280;33291;46.222;26.460;2022-11-20T11:37:33;95913.91;;;2.98;95.95
47556;BME280;33291;46.222;26.460;2022-11-20T11:40:01;95914.22;;;2.93;96.10
47556;BME280;33291;46.222;26.460;2022-11-20T11:42:27;95916.69;;;2.95;96.04
47556;BME280;33291;46.222;26.460;2022-11-20T11:44:57;95915.25;;;2.91;95.99
47556;BME280;33291;46.222;26.460;2022-11-20T11:47:36;95923.34;;;2.97;96.15
47556;BME280;33291;46.222;26.460;2022-11-20T12:00:40;95944.56;;;3.01;96.34
47556;BME280;33291;46.222;26.460;2022-11-20T12:03:39;95931.59;;;3.02;96.74
47556;BME280;33291;46.222;26.460;2022-11-20T12:06:12;95930.75;;;3.02;96.46
47556;BME280;33291;46.222;26.460;2022-11-20T12:08:47;95926.94;;;3.08;96.72
47556;BME280;33291;46.222;26.460;2022-11-20T12:11:24;95897.47;;;2.88;96.71
47556;BME280;33291;46.222;26.460;2022-11-20T12:14:22;95934.66;;;3.08;96.87
47556;BME280;33291;46.222;26.460;2022-11-20T12:16:52;95926.25;;;3.06;97.10
47556;BME280;33291;46.222;26.460;2022-11-20T12:19:18;95931.28;;;3.07;96.83
47556;BME280;33291;46.222;26.460;2022-11-20T12:39:50;95920.72;;;2.86;95.88
47556;BME280;33291;46.222;26.460;2022-11-20T12:42:27;95926.25;;;2.93;95.93
47556;BME280;33291;46.222;26.460;2022-11-20T13:03:05;95914.72;;;2.98;96.66
47556;BME280;33291;46.222;26.460;2022-11-20T13:08:27;95890.75;;;2.98;95.81
47556;BME280;33291;46.222;26.460;2022-11-20T13:11:35;95894.75;;;3.02;95.83
47556;BME280;33291;46.222;26.460;2022-11-20T13:16:45;95908.34;;;3.04;95.85
47556;BME280;33291;46.222;26.460;2022-11-20T13:19:16;95903.19;;;3.04;95.97
47556;BME280;33291;46.222;26.460;2022-11-20T13:21:45;95911.22;;;2.99;96.90
47556;BME280;33291;46.222;26.460;2022-11-20T13:29:35;95900.84;;;2.88;97.53
47556;BME280;33291;46.222;26.460;2022-11-20T13:34:39;95880.25;;;2.88;97.10
47556;BME280;33291;46.222;26.460;2022-11-20T13:37:26;95898.59;;;2.96;97.36
47556;BME280;33291;46.222;26.460;2022-11-20T13:39:52;95890.03;;;2.96;97.67
47556;BME280;33291;46.222;26.460;2022-11-20T13:42:25;95885.72;;;2.96;97.30
47556;BME280;33291;46.222;26.460;2022-11-20T13:45:01;95886.31;;;3.00;97.25
47556;BME280;33291;46.222;26.460;2022-11-20T13:47:28;95884.06;;;2.95;97.79
47556;BME280;33291;46.222;26.460;2022-11-20T13:49:57;95880.34;;;2.99;97.71
47556;BME280;33291;46.222;26.460;2022-11-20T13:53:07;95879.41;;;3.00;97.33
47556;BME280;33291;46.222;26.460;2022-11-20T14:03:30;95860.41;;;2.90;97.43
47556;BME280;33291;46.222;26.460;2022-11-20T14:06:05;95857.84;;;2.90;97.62
47556;BME280;33291;46.222;26.460;2022-11-20T14:08:41;95856.09;;;2.91;97.89
47556;BME280;33291;46.222;26.460;2022-11-20T14:11:20;95846.00;;;2.88;97.65
47556;BME280;33291;46.222;26.460;2022-11-20T14:16:37;95834.50;;;2.80;97.75
47556;BME280;33291;46.222;26.460;2022-11-20T14:21:48;95854.06;;;2.83;98.12
47556;BME280;33291;46.222;26.460;2022-11-20T14:24:18;95861.88;;;2.81;98.28
47556;BME280;33291;46.222;26.460;2022-11-20T14:26:45;95859.22;;;2.70;98.95
47556;BME280;33291;46.222;26.460;2022-11-20T14:29:26;95869.06;;;2.76;100.00
47556;BME280;33291;46.222;26.460;2022-11-20T14:31:53;95869.06;;;2.76;100.00
47556;BME280;33291;46.222;26.460;2022-11-20T14:34:25;95873.84;;;2.70;100.00
47556;BME280;33291;46.222;26.460;2022-11-20T14:36:59;95892.66;;;2.70;100.00
47556;BME280;33291;46.222;26.460;2022-11-20T14:39:41;95896.06;;;2.71;100.00
47556;BME280;33291;46.222;26.460;2022-11-20T14:42:22;95915.69;;;2.72;100.00
47556;BME280;33291;46.222;26.460;2022-11-20T14:44:50;95921.34;;;2.77;100.00
47556;BME280;33291;46.222;26.460;2022-11-20T14:47:25;95905.19;;;2.75;100.00
47556;BME280;33291;46.222;26.460;2022-11-20T14:49:53;95904.06;;;2.79;100.00
47556;BME280;33291;46.222;26.460;2022-11-20T14:52:24;95909.81;;;2.82;99.83
47556;BME280;33291;46.222;26.460;2022-11-20T14:54:54;95890.16;;;2.81;99.72
47556;BME280;33291;46.222;26.460;2022-11-20T15:02:43;95918.25;;;2.84;100.00
47556;BME280;33291;46.222;26.460;2022-11-20T15:05:09;95928.22;;;2.89;100.00
47556;BME280;33291;46.222;26.460;2022-11-20T15:07:37;95936.88;;;2.88;100.00
47556;BME280;33291;46.222;26.460;2022-11-20T15:10:08;95909.09;;;2.80;100.00
47556;BME280;33291;46.222;26.460;2022-11-20T15:13:00;95903.41;;;2.88;100.00
47556;BME280;33291;46.222;26.460;2022-11-20T15:17:53;95895.00;;;2.86;100.00
47556;BME280;33291;46.222;26.460;2022-11-20T15:20:21;95918.44;;;2.94;100.00
47556;BME280;33291;46.222;26.460;2022-11-20T15:22:49;95904.66;;;2.95;100.00
47556;BME280;33291;46.222;26.460;2022-11-20T15:25:16;95892.31;;;2.88;100.00